Terminal Aerodrome Forecast
Issued by NWS

Home | Current Version | Previous Version | Text Only | Print | Product List | Glossary On
Versions: 1 2 3 4 5 6 7 8 9 10 11 12 13 14 15 16 17 18 19 20 21 22 23 24 25 26 27 28 29 30 31
979
FTUS41 KBTV 251731
TAFPBG
TAF
KPBG 251731Z 2518/2618 14005KT P6SM VCSH FEW090 SCT200
     FM252000 30007G14KT P6SM FEW080 SCT150
      TEMPO 2520/2524 -SHRA SCT050 BKN080
     FM260000 VRB03KT P6SM FEW090 SCT200
     FM261500 08006KT P6SM FEW250=

USA.gov is the U.S. government's official web portal to all federal, state and local government web resources and services.